Terminal Aerodrome Forecast
Issued by NWS

Home | Current Version | Previous Version | Text Only | Print | Product List | Glossary On
Versions: 1 2 3 4 5 6 7 8 9 10 11 12
000
FTUS44 KLIX 311729
TAFGPT
TAF
KGPT 311729Z 3118/0118 17006KT P6SM FEW050
     FM010300 00000KT P6SM FEW250
     FM011400 32006KT P6SM FEW250=

USA.gov is the U.S. government's official web portal to all federal, state and local government web resources and services.